sensor_id;sensor_type;location;lat;lon;timestamp;P1;durP1;ratioP1;P2;durP2;ratioP2
60873;SDS011;46715;40.642;-7.920;2022-11-10T00:00:49;99.25;;;52.90;;
60873;SDS011;46715;40.642;-7.920;2022-11-10T00:03:08;70.10;;;47.58;;
60873;SDS011;46715;40.642;-7.920;2022-11-10T00:05:30;85.70;;;50.47;;
60873;SDS011;46715;40.642;-7.920;2022-11-10T00:07:50;71.05;;;49.22;;
60873;SDS011;46715;40.642;-7.920;2022-11-10T00:10:10;75.93;;;48.85;;
60873;SDS011;46715;40.642;-7.920;2022-11-10T00:12:30;82.95;;;50.13;;
60873;SDS011;46715;40.642;-7.920;2022-11-10T00:14:50;89.03;;;51.40;;
60873;SDS011;46715;40.642;-7.920;2022-11-10T00:17:28;115.03;;;56.67;;
60873;SDS011;46715;40.642;-7.920;2022-11-10T00:19:48;109.10;;;56.00;;
60873;SDS011;46715;40.642;-7.920;2022-11-10T00:22:07;118.85;;;55.05;;
60873;SDS011;46715;40.642;-7.920;2022-11-10T00:24:26;114.35;;;57.38;;
60873;SDS011;46715;40.642;-7.920;2022-11-10T00:26:47;160.15;;;66.10;;
60873;SDS011;46715;40.642;-7.920;2022-11-10T00:29:07;135.25;;;53.08;;
60873;SDS011;46715;40.642;-7.920;2022-11-10T00:31:26;105.70;;;53.30;;
60873;SDS011;46715;40.642;-7.920;2022-11-10T00:33:46;110.72;;;53.00;;
60873;SDS011;46715;40.642;-7.920;2022-11-10T00:36:06;121.97;;;46.45;;
60873;SDS011;46715;40.642;-7.920;2022-11-10T00:38:25;95.60;;;41.03;;
60873;SDS011;46715;40.642;-7.920;2022-11-10T00:40:46;112.72;;;50.35;;
60873;SDS011;46715;40.642;-7.920;2022-11-10T00:43:05;107.55;;;46.83;;
60873;SDS011;46715;40.642;-7.920;2022-11-10T00:45:25;95.38;;;42.83;;
60873;SDS011;46715;40.642;-7.920;2022-11-10T00:47:44;138.40;;;53.00;;
60873;SDS011;46715;40.642;-7.920;2022-11-10T00:50:04;104.90;;;46.08;;
60873;SDS011;46715;40.642;-7.920;2022-11-10T00:52:24;127.35;;;51.45;;
60873;SDS011;46715;40.642;-7.920;2022-11-10T00:54:43;74.15;;;43.33;;
60873;SDS011;46715;40.642;-7.920;2022-11-10T00:57:02;69.03;;;37.58;;
60873;SDS011;46715;40.642;-7.920;2022-11-10T00:59:22;72.07;;;36.97;;
60873;SDS011;46715;40.642;-7.920;2022-11-10T01:01:41;80.05;;;36.38;;
60873;SDS011;46715;40.642;-7.920;2022-11-10T01:04:03;67.82;;;35.15;;
60873;SDS011;46715;40.642;-7.920;2022-11-10T01:06:22;76.35;;;37.50;;
60873;SDS011;46715;40.642;-7.920;2022-11-10T01:08:42;69.13;;;35.63;;
60873;SDS011;46715;40.642;-7.920;2022-11-10T01:11:02;86.43;;;38.03;;
60873;SDS011;46715;40.642;-7.920;2022-11-10T01:13:22;75.80;;;35.83;;
60873;SDS011;46715;40.642;-7.920;2022-11-10T01:15:42;65.85;;;32.80;;
60873;SDS011;46715;40.642;-7.920;2022-11-10T01:18:01;67.50;;;30.35;;
60873;SDS011;46715;40.642;-7.920;2022-11-10T01:20:21;83.30;;;31.00;;
60873;SDS011;46715;40.642;-7.920;2022-11-10T01:22:44;77.20;;;30.42;;
60873;SDS011;46715;40.642;-7.920;2022-11-10T01:25:04;89.65;;;32.58;;
60873;SDS011;46715;40.642;-7.920;2022-11-10T01:27:24;80.40;;;34.30;;
60873;SDS011;46715;40.642;-7.920;2022-11-10T01:29:43;85.03;;;29.92;;
60873;SDS011;46715;40.642;-7.920;2022-11-10T01:32:04;74.18;;;29.35;;
60873;SDS011;46715;40.642;-7.920;2022-11-10T01:34:24;72.32;;;28.73;;
60873;SDS011;46715;40.642;-7.920;2022-11-10T01:36:46;73.82;;;29.33;;
60873;SDS011;46715;40.642;-7.920;2022-11-10T01:39:06;70.85;;;26.70;;
60873;SDS011;46715;40.642;-7.920;2022-11-10T01:41:25;67.78;;;25.85;;
60873;SDS011;46715;40.642;-7.920;2022-11-10T01:43:45;73.45;;;25.58;;
60873;SDS011;46715;40.642;-7.920;2022-11-10T01:46:08;58.85;;;25.85;;
60873;SDS011;46715;40.642;-7.920;2022-11-10T01:48:34;63.00;;;25.40;;
60873;SDS011;46715;40.642;-7.920;2022-11-10T01:51:05;56.83;;;20.90;;
60873;SDS011;46715;40.642;-7.920;2022-11-10T01:53:35;50.78;;;21.35;;
60873;SDS011;46715;40.642;-7.920;2022-11-10T01:55:59;57.15;;;21.90;;
60873;SDS011;46715;40.642;-7.920;2022-11-10T01:58:22;55.53;;;21.05;;
60873;SDS011;46715;40.642;-7.920;2022-11-10T02:00:46;62.42;;;20.38;;
60873;SDS011;46715;40.642;-7.920;2022-11-10T02:03:18;56.78;;;20.73;;
60873;SDS011;46715;40.642;-7.920;2022-11-10T02:05:38;58.88;;;22.20;;
60873;SDS011;46715;40.642;-7.920;2022-11-10T02:07:57;50.38;;;21.25;;
60873;SDS011;46715;40.642;-7.920;2022-11-10T02:10:21;44.15;;;21.23;;
60873;SDS011;46715;40.642;-7.920;2022-11-10T02:12:40;46.85;;;20.30;;
60873;SDS011;46715;40.642;-7.920;2022-11-10T02:15:00;54.47;;;21.02;;
60873;SDS011;46715;40.642;-7.920;2022-11-10T02:17:19;53.95;;;20.67;;
60873;SDS011;46715;40.642;-7.920;2022-11-10T02:19:39;51.75;;;18.10;;
60873;SDS011;46715;40.642;-7.920;2022-11-10T02:21:59;47.72;;;19.02;;
60873;SDS011;46715;40.642;-7.920;2022-11-10T02:24:19;51.03;;;18.45;;
60873;SDS011;46715;40.642;-7.920;2022-11-10T02:26:45;54.78;;;18.35;;
60873;SDS011;46715;40.642;-7.920;2022-11-10T02:29:09;41.55;;;18.33;;
60873;SDS011;46715;40.642;-7.920;2022-11-10T02:31:28;40.45;;;19.45;;
60873;SDS011;46715;40.642;-7.920;2022-11-10T02:33:48;53.55;;;19.15;;
60873;SDS011;46715;40.642;-7.920;2022-11-10T02:36:07;46.00;;;17.95;;
60873;SDS011;46715;40.642;-7.920;2022-11-10T02:38:28;44.38;;;17.63;;
60873;SDS011;46715;40.642;-7.920;2022-11-10T02:40:47;42.13;;;16.98;;
60873;SDS011;46715;40.642;-7.920;2022-11-10T02:43:08;41.97;;;17.15;;
60873;SDS011;46715;40.642;-7.920;2022-11-10T02:45:31;35.78;;;15.13;;
60873;SDS011;46715;40.642;-7.920;2022-11-10T02:47:51;43.70;;;17.08;;
60873;SDS011;46715;40.642;-7.920;2022-11-10T02:50:10;46.92;;;16.30;;
60873;SDS011;46715;40.642;-7.920;2022-11-10T02:52:29;33.13;;;16.50;;
60873;SDS011;46715;40.642;-7.920;2022-11-10T02:54:48;36.90;;;17.40;;
60873;SDS011;46715;40.642;-7.920;2022-11-10T02:57:08;31.63;;;15.30;;
60873;SDS011;46715;40.642;-7.920;2022-11-10T02:59:27;32.13;;;15.40;;
60873;SDS011;46715;40.642;-7.920;2022-11-10T03:01:47;31.42;;;16.30;;
60873;SDS011;46715;40.642;-7.920;2022-11-10T03:04:06;30.83;;;15.13;;
60873;SDS011;46715;40.642;-7.920;2022-11-10T03:06:25;40.20;;;17.50;;
60873;SDS011;46715;40.642;-7.920;2022-11-10T03:08:45;61.97;;;16.15;;
60873;SDS011;46715;40.642;-7.920;2022-11-10T03:11:05;57.20;;;15.88;;
60873;SDS011;46715;40.642;-7.920;2022-11-10T03:13:25;33.88;;;15.95;;
60873;SDS011;46715;40.642;-7.920;2022-11-10T03:15:48;42.25;;;17.98;;
60873;SDS011;46715;40.642;-7.920;2022-11-10T03:18:07;121.60;;;23.38;;
60873;SDS011;46715;40.642;-7.920;2022-11-10T03:20:27;34.80;;;15.90;;
60873;SDS011;46715;40.642;-7.920;2022-11-10T03:22:47;33.40;;;15.52;;
60873;SDS011;46715;40.642;-7.920;2022-11-10T03:25:07;30.48;;;14.70;;
60873;SDS011;46715;40.642;-7.920;2022-11-10T03:27:27;26.10;;;14.40;;
60873;SDS011;46715;40.642;-7.920;2022-11-10T03:29:46;41.15;;;16.48;;
60873;SDS011;46715;40.642;-7.920;2022-11-10T03:32:05;38.30;;;16.33;;
60873;SDS011;46715;40.642;-7.920;2022-11-10T03:34:25;35.15;;;16.23;;
60873;SDS011;46715;40.642;-7.920;2022-11-10T03:36:44;41.75;;;17.90;;
60873;SDS011;46715;40.642;-7.920;2022-11-10T03:39:03;29.70;;;15.00;;
60873;SDS011;46715;40.642;-7.920;2022-11-10T03:41:22;33.63;;;15.55;;
60873;SDS011;46715;40.642;-7.920;2022-11-10T03:43:42;36.58;;;16.77;;
60873;SDS011;46715;40.642;-7.920;2022-11-10T03:46:02;56.85;;;17.75;;
60873;SDS011;46715;40.642;-7.920;2022-11-10T03:48:21;53.28;;;18.35;;
60873;SDS011;46715;40.642;-7.920;2022-11-10T03:50:40;30.98;;;16.30;;
60873;SDS011;46715;40.642;-7.920;2022-11-10T03:53:00;36.17;;;19.92;;
60873;SDS011;46715;40.642;-7.920;2022-11-10T03:55:20;44.58;;;20.27;;
60873;SDS011;46715;40.642;-7.920;2022-11-10T03:57:40;33.05;;;17.00;;
60873;SDS011;46715;40.642;-7.920;2022-11-10T03:59:59;36.92;;;16.67;;
60873;SDS011;46715;40.642;-7.920;2022-11-10T04:02:21;45.67;;;19.08;;
60873;SDS011;46715;40.642;-7.920;2022-11-10T04:04:40;29.40;;;16.05;;
60873;SDS011;46715;40.642;-7.920;2022-11-10T04:07:19;29.10;;;16.65;;
60873;SDS011;46715;40.642;-7.920;2022-11-10T04:09:56;32.92;;;16.90;;
60873;SDS011;46715;40.642;-7.920;2022-11-10T04:12:16;37.78;;;17.38;;
60873;SDS011;46715;40.642;-7.920;2022-11-10T04:14:54;36.47;;;18.35;;
60873;SDS011;46715;40.642;-7.920;2022-11-10T04:17:32;37.90;;;19.10;;
60873;SDS011;46715;40.642;-7.920;2022-11-10T04:19:52;32.67;;;16.52;;
60873;SDS011;46715;40.642;-7.920;2022-11-10T04:22:11;34.42;;;18.02;;
60873;SDS011;46715;40.642;-7.920;2022-11-10T04:24:50;29.38;;;16.17;;
60873;SDS011;46715;40.642;-7.920;2022-11-10T04:27:09;29.85;;;18.15;;
60873;SDS011;46715;40.642;-7.920;2022-11-10T04:29:29;35.05;;;17.52;;
60873;SDS011;46715;40.642;-7.920;2022-11-10T04:31:47;30.67;;;16.63;;
60873;SDS011;46715;40.642;-7.920;2022-11-10T04:34:08;33.25;;;16.40;;
60873;SDS011;46715;40.642;-7.920;2022-11-10T04:36:32;28.13;;;15.18;;
60873;SDS011;46715;40.642;-7.920;2022-11-10T04:38:53;71.15;;;18.23;;
60873;SDS011;46715;40.642;-7.920;2022-11-10T04:41:13;28.95;;;15.98;;
60873;SDS011;46715;40.642;-7.920;2022-11-10T04:43:33;34.83;;;15.10;;
60873;SDS011;46715;40.642;-7.920;2022-11-10T04:45:53;29.20;;;17.33;;
60873;SDS011;46715;40.642;-7.920;2022-11-10T04:48:12;34.60;;;17.20;;
60873;SDS011;46715;40.642;-7.920;2022-11-10T04:50:31;31.90;;;18.67;;
60873;SDS011;46715;40.642;-7.920;2022-11-10T04:52:51;36.35;;;19.58;;
60873;SDS011;46715;40.642;-7.920;2022-11-10T04:55:10;50.45;;;18.58;;
60873;SDS011;46715;40.642;-7.920;2022-11-10T04:57:29;36.05;;;20.00;;
60873;SDS011;46715;40.642;-7.920;2022-11-10T04:59:48;32.75;;;16.75;;
60873;SDS011;46715;40.642;-7.920;2022-11-10T05:02:08;25.30;;;13.75;;
60873;SDS011;46715;40.642;-7.920;2022-11-10T05:04:27;25.73;;;14.95;;
60873;SDS011;46715;40.642;-7.920;2022-11-10T05:06:47;31.73;;;16.38;;
60873;SDS011;46715;40.642;-7.920;2022-11-10T05:09:06;27.65;;;14.98;;
60873;SDS011;46715;40.642;-7.920;2022-11-10T05:11:26;25.80;;;14.25;;
60873;SDS011;46715;40.642;-7.920;2022-11-10T05:13:46;35.40;;;16.17;;
60873;SDS011;46715;40.642;-7.920;2022-11-10T05:16:06;27.08;;;16.88;;
60873;SDS011;46715;40.642;-7.920;2022-11-10T05:18:26;32.83;;;17.83;;
60873;SDS011;46715;40.642;-7.920;2022-11-10T05:20:45;35.40;;;18.73;;
60873;SDS011;46715;40.642;-7.920;2022-11-10T05:23:04;37.83;;;16.85;;
60873;SDS011;46715;40.642;-7.920;2022-11-10T05:25:43;216.70;;;27.35;;
60873;SDS011;46715;40.642;-7.920;2022-11-10T05:28:03;105.25;;;19.63;;
60873;SDS011;46715;40.642;-7.920;2022-11-10T05:30:23;27.83;;;15.48;;
60873;SDS011;46715;40.642;-7.920;2022-11-10T05:32:42;23.92;;;15.32;;
60873;SDS011;46715;40.642;-7.920;2022-11-10T05:35:01;27.65;;;15.50;;
60873;SDS011;46715;40.642;-7.920;2022-11-10T05:37:21;27.60;;;15.10;;
60873;SDS011;46715;40.642;-7.920;2022-11-10T05:39:41;66.35;;;18.40;;
60873;SDS011;46715;40.642;-7.920;2022-11-10T05:42:01;33.92;;;16.40;;
60873;SDS011;46715;40.642;-7.920;2022-11-10T05:44:20;189.48;;;26.30;;
60873;SDS011;46715;40.642;-7.920;2022-11-10T05:46:39;43.05;;;16.13;;
60873;SDS011;46715;40.642;-7.920;2022-11-10T05:48:59;175.35;;;22.75;;
60873;SDS011;46715;40.642;-7.920;2022-11-10T05:51:18;315.67;;;35.00;;
60873;SDS011;46715;40.642;-7.920;2022-11-10T05:53:37;36.60;;;16.08;;
60873;SDS011;46715;40.642;-7.920;2022-11-10T05:55:57;28.05;;;14.73;;
60873;SDS011;46715;40.642;-7.920;2022-11-10T05:58:16;24.30;;;12.75;;
60873;SDS011;46715;40.642;-7.920;2022-11-10T06:00:35;25.08;;;14.02;;
60873;SDS011;46715;40.642;-7.920;2022-11-10T06:02:59;24.23;;;13.00;;
60873;SDS011;46715;40.642;-7.920;2022-11-10T06:05:23;23.52;;;13.32;;
60873;SDS011;46715;40.642;-7.920;2022-11-10T06:07:42;24.55;;;13.50;;
60873;SDS011;46715;40.642;-7.920;2022-11-10T06:10:01;48.92;;;15.70;;
60873;SDS011;46715;40.642;-7.920;2022-11-10T06:12:21;19.67;;;12.13;;
60873;SDS011;46715;40.642;-7.920;2022-11-10T06:14:42;20.70;;;13.27;;
60873;SDS011;46715;40.642;-7.920;2022-11-10T06:17:03;29.58;;;14.73;;
60873;SDS011;46715;40.642;-7.920;2022-11-10T06:19:22;25.38;;;13.23;;
60873;SDS011;46715;40.642;-7.920;2022-11-10T06:21:41;21.65;;;12.80;;
60873;SDS011;46715;40.642;-7.920;2022-11-10T06:24:00;18.55;;;12.77;;
60873;SDS011;46715;40.642;-7.920;2022-11-10T06:26:20;26.98;;;14.07;;
60873;SDS011;46715;40.642;-7.920;2022-11-10T06:28:39;56.88;;;15.93;;
60873;SDS011;46715;40.642;-7.920;2022-11-10T06:30:59;122.88;;;18.50;;
60873;SDS011;46715;40.642;-7.920;2022-11-10T06:33:18;32.42;;;13.57;;
60873;SDS011;46715;40.642;-7.920;2022-11-10T06:35:39;23.15;;;12.15;;
60873;SDS011;46715;40.642;-7.920;2022-11-10T06:38:02;20.42;;;13.43;;
60873;SDS011;46715;40.642;-7.920;2022-11-10T06:40:25;24.52;;;14.57;;
60873;SDS011;46715;40.642;-7.920;2022-11-10T06:42:45;30.75;;;14.98;;
60873;SDS011;46715;40.642;-7.920;2022-11-10T06:45:08;18.65;;;12.50;;
60873;SDS011;46715;40.642;-7.920;2022-11-10T06:47:27;18.58;;;12.32;;
60873;SDS011;46715;40.642;-7.920;2022-11-10T06:49:48;20.63;;;13.02;;
60873;SDS011;46715;40.642;-7.920;2022-11-10T06:52:07;19.63;;;11.95;;
60873;SDS011;46715;40.642;-7.920;2022-11-10T06:54:26;22.42;;;14.60;;
60873;SDS011;46715;40.642;-7.920;2022-11-10T06:56:45;23.38;;;14.07;;
60873;SDS011;46715;40.642;-7.920;2022-11-10T06:59:05;26.80;;;14.35;;
60873;SDS011;46715;40.642;-7.920;2022-11-10T07:01:24;22.40;;;13.73;;
60873;SDS011;46715;40.642;-7.920;2022-11-10T07:03:46;21.25;;;13.70;;
60873;SDS011;46715;40.642;-7.920;2022-11-10T07:06:06;28.70;;;15.30;;
60873;SDS011;46715;40.642;-7.920;2022-11-10T07:08:26;28.70;;;15.50;;
60873;SDS011;46715;40.642;-7.920;2022-11-10T07:10:50;24.05;;;14.65;;
60873;SDS011;46715;40.642;-7.920;2022-11-10T07:13:11;22.00;;;13.27;;
60873;SDS011;46715;40.642;-7.920;2022-11-10T07:15:30;19.08;;;12.98;;
60873;SDS011;46715;40.642;-7.920;2022-11-10T07:17:51;22.63;;;13.15;;
60873;SDS011;46715;40.642;-7.920;2022-11-10T07:20:10;23.35;;;14.48;;
60873;SDS011;46715;40.642;-7.920;2022-11-10T07:22:30;23.58;;;13.45;;
60873;SDS011;46715;40.642;-7.920;2022-11-10T07:24:49;26.70;;;13.98;;
60873;SDS011;46715;40.642;-7.920;2022-11-10T07:27:08;27.73;;;14.70;;
60873;SDS011;46715;40.642;-7.920;2022-11-10T07:29:27;20.85;;;13.57;;
60873;SDS011;46715;40.642;-7.920;2022-11-10T07:31:47;23.70;;;13.68;;
60873;SDS011;46715;40.642;-7.920;2022-11-10T07:34:08;26.08;;;15.40;;
60873;SDS011;46715;40.642;-7.920;2022-11-10T07:36:27;26.10;;;14.85;;
60873;SDS011;46715;40.642;-7.920;2022-11-10T07:38:47;25.60;;;15.20;;
60873;SDS011;46715;40.642;-7.920;2022-11-10T07:41:08;25.13;;;14.48;;
60873;SDS011;46715;40.642;-7.920;2022-11-10T07:43:27;31.73;;;15.98;;
60873;SDS011;46715;40.642;-7.920;2022-11-10T07:45:51;22.95;;;13.65;;
60873;SDS011;46715;40.642;-7.920;2022-11-10T07:48:11;28.45;;;14.68;;
60873;SDS011;46715;40.642;-7.920;2022-11-10T07:50:31;19.92;;;13.10;;
60873;SDS011;46715;40.642;-7.920;2022-11-10T07:52:51;24.80;;;13.80;;
60873;SDS011;46715;40.642;-7.920;2022-11-10T07:55:11;23.88;;;15.55;;
60873;SDS011;46715;40.642;-7.920;2022-11-10T07:57:31;21.10;;;13.23;;
60873;SDS011;46715;40.642;-7.920;2022-11-10T07:59:51;17.35;;;11.38;;
60873;SDS011;46715;40.642;-7.920;2022-11-10T08:02:10;20.05;;;10.35;;
60873;SDS011;46715;40.642;-7.920;2022-11-10T08:04:30;17.55;;;9.55;;
60873;SDS011;46715;40.642;-7.920;2022-11-10T08:06:50;14.15;;;8.77;;
60873;SDS011;46715;40.642;-7.920;2022-11-10T08:09:10;12.68;;;8.48;;
60873;SDS011;46715;40.642;-7.920;2022-11-10T08:11:29;14.45;;;7.55;;
60873;SDS011;46715;40.642;-7.920;2022-11-10T08:13:49;13.88;;;8.27;;
60873;SDS011;46715;40.642;-7.920;2022-11-10T08:16:08;13.27;;;8.38;;
60873;SDS011;46715;40.642;-7.920;2022-11-10T08:18:28;13.40;;;9.18;;
60873;SDS011;46715;40.642;-7.920;2022-11-10T08:20:48;14.65;;;7.80;;
60873;SDS011;46715;40.642;-7.920;2022-11-10T08:23:07;9.77;;;6.32;;
60873;SDS011;46715;40.642;-7.920;2022-11-10T08:25:27;12.73;;;7.72;;
60873;SDS011;46715;40.642;-7.920;2022-11-10T08:27:48;11.47;;;6.87;;
60873;SDS011;46715;40.642;-7.920;2022-11-10T08:30:07;18.55;;;7.40;;
60873;SDS011;46715;40.642;-7.920;2022-11-10T08:32:27;12.18;;;7.53;;
60873;SDS011;46715;40.642;-7.920;2022-11-10T08:34:46;14.25;;;7.35;;
60873;SDS011;46715;40.642;-7.920;2022-11-10T08:37:06;13.13;;;7.35;;
60873;SDS011;46715;40.642;-7.920;2022-11-10T08:39:25;14.63;;;7.43;;
60873;SDS011;46715;40.642;-7.920;2022-11-10T08:41:45;8.63;;;6.72;;
60873;SDS011;46715;40.642;-7.920;2022-11-10T08:44:05;13.45;;;7.70;;
60873;SDS011;46715;40.642;-7.920;2022-11-10T08:46:24;13.80;;;7.72;;
60873;SDS011;46715;40.642;-7.920;2022-11-10T08:48:44;13.80;;;7.75;;
60873;SDS011;46715;40.642;-7.920;2022-11-10T08:51:04;10.63;;;7.03;;
60873;SDS011;46715;40.642;-7.920;2022-11-10T08:53:23;10.25;;;6.25;;
60873;SDS011;46715;40.642;-7.920;2022-11-10T08:55:43;8.32;;;5.10;;
60873;SDS011;46715;40.642;-7.920;2022-11-10T09:01:47;6.40;;;3.60;;
60873;SDS011;46715;40.642;-7.920;2022-11-10T09:07:00;6.43;;;3.65;;
60873;SDS011;46715;40.642;-7.920;2022-11-10T09:09:19;8.07;;;3.65;;
60873;SDS011;46715;40.642;-7.920;2022-11-10T09:11:39;5.72;;;3.25;;
60873;SDS011;46715;40.642;-7.920;2022-11-10T09:13:58;9.80;;;3.55;;
60873;SDS011;46715;40.642;-7.920;2022-11-10T09:16:18;6.32;;;3.60;;
60873;SDS011;46715;40.642;-7.920;2022-11-10T09:18:37;8.25;;;3.78;;
60873;SDS011;46715;40.642;-7.920;2022-11-10T09:20:57;6.22;;;3.85;;
60873;SDS011;46715;40.642;-7.920;2022-11-10T09:23:17;13.50;;;3.30;;
60873;SDS011;46715;40.642;-7.920;2022-11-10T09:25:37;8.77;;;3.53;;
60873;SDS011;46715;40.642;-7.920;2022-11-10T09:27:57;7.75;;;4.72;;
60873;SDS011;46715;40.642;-7.920;2022-11-10T09:30:16;4.70;;;3.45;;
60873;SDS011;46715;40.642;-7.920;2022-11-10T09:32:35;6.47;;;2.72;;
60873;SDS011;46715;40.642;-7.920;2022-11-10T09:34:56;10.85;;;3.30;;
60873;SDS011;46715;40.642;-7.920;2022-11-10T09:37:17;8.27;;;3.47;;
60873;SDS011;46715;40.642;-7.920;2022-11-10T09:39:36;14.15;;;3.67;;
60873;SDS011;46715;40.642;-7.920;2022-11-10T09:41:56;6.97;;;3.22;;
60873;SDS011;46715;40.642;-7.920;2022-11-10T09:44:35;9.80;;;3.42;;
60873;SDS011;46715;40.642;-7.920;2022-11-10T09:49:55;9.95;;;3.55;;
60873;SDS011;46715;40.642;-7.920;2022-11-10T09:52:17;5.22;;;3.70;;
60873;SDS011;46715;40.642;-7.920;2022-11-10T09:55:02;8.23;;;4.53;;
60873;SDS011;46715;40.642;-7.920;2022-11-10T09:57:33;6.72;;;3.88;;
60873;SDS011;46715;40.642;-7.920;2022-11-10T09:59:52;8.57;;;4.28;;
60873;SDS011;46715;40.642;-7.920;2022-11-10T10:02:32;11.02;;;5.25;;
60873;SDS011;46715;40.642;-7.920;2022-11-10T10:07:51;13.77;;;8.15;;
60873;SDS011;46715;40.642;-7.920;2022-11-10T10:14:02;11.95;;;6.82;;
60873;SDS011;46715;40.642;-7.920;2022-11-10T10:16:16;10.55;;;6.10;;
60873;SDS011;46715;40.642;-7.920;2022-11-10T10:21:36;10.98;;;5.75;;
60873;SDS011;46715;40.642;-7.920;2022-11-10T10:24:16;10.43;;;6.13;;
60873;SDS011;46715;40.642;-7.920;2022-11-10T10:26:42;9.32;;;5.55;;
60873;SDS011;46715;40.642;-7.920;2022-11-10T10:29:09;8.57;;;5.18;;
60873;SDS011;46715;40.642;-7.920;2022-11-10T10:31:46;6.68;;;4.43;;
60873;SDS011;46715;40.642;-7.920;2022-11-10T10:34:14;10.43;;;4.40;;
60873;SDS011;46715;40.642;-7.920;2022-11-10T10:36:35;12.45;;;4.20;;
60873;SDS011;46715;40.642;-7.920;2022-11-10T10:39:03;7.63;;;5.13;;
60873;SDS011;46715;40.642;-7.920;2022-11-10T10:41:27;9.52;;;4.35;;
60873;SDS011;46715;40.642;-7.920;2022-11-10T10:43:48;10.90;;;4.93;;
60873;SDS011;46715;40.642;-7.920;2022-11-10T10:46:10;8.50;;;4.38;;
60873;SDS011;46715;40.642;-7.920;2022-11-10T10:48:33;7.10;;;4.45;;
60873;SDS011;46715;40.642;-7.920;2022-11-10T10:50:56;6.53;;;3.72;;
60873;SDS011;46715;40.642;-7.920;2022-11-10T10:53:19;7.30;;;4.50;;
60873;SDS011;46715;40.642;-7.920;2022-11-10T11:03:26;10.35;;;3.72;;
60873;SDS011;46715;40.642;-7.920;2022-11-10T11:06:01;10.00;;;4.68;;
60873;SDS011;46715;40.642;-7.920;2022-11-10T11:11:22;7.22;;;3.92;;
60873;SDS011;46715;40.642;-7.920;2022-11-10T11:13:44;8.30;;;4.78;;
60873;SDS011;46715;40.642;-7.920;2022-11-10T11:16:04;13.18;;;6.68;;
60873;SDS011;46715;40.642;-7.920;2022-11-10T11:18:27;8.88;;;4.63;;
60873;SDS011;46715;40.642;-7.920;2022-11-10T11:23:49;6.72;;;4.22;;
60873;SDS011;46715;40.642;-7.920;2022-11-10T11:29:32;11.25;;;4.53;;
60873;SDS011;46715;40.642;-7.920;2022-11-10T11:34:54;8.23;;;4.80;;
60873;SDS011;46715;40.642;-7.920;2022-11-10T11:37:18;8.60;;;4.60;;
60873;SDS011;46715;40.642;-7.920;2022-11-10T11:42:27;10.77;;;4.60;;
60873;SDS011;46715;40.642;-7.920;2022-11-10T11:50:26;7.22;;;4.40;;
60873;SDS011;46715;40.642;-7.920;2022-11-10T11:55:22;9.23;;;4.35;;
60873;SDS011;46715;40.642;-7.920;2022-11-10T12:00:26;7.22;;;4.20;;
60873;SDS011;46715;40.642;-7.920;2022-11-10T12:03:05;8.95;;;4.28;;
60873;SDS011;46715;40.642;-7.920;2022-11-10T12:05:30;5.22;;;2.35;;
60873;SDS011;46715;40.642;-7.920;2022-11-10T12:07:58;7.45;;;4.18;;
60873;SDS011;46715;40.642;-7.920;2022-11-10T12:19:04;5.25;;;2.88;;
60873;SDS011;46715;40.642;-7.920;2022-11-10T12:21:44;4.72;;;3.25;;
60873;SDS011;46715;40.642;-7.920;2022-11-10T12:27:29;6.30;;;3.58;;
60873;SDS011;46715;40.642;-7.920;2022-11-10T12:29:53;5.22;;;2.13;;
60873;SDS011;46715;40.642;-7.920;2022-11-10T12:32:31;3.95;;;2.00;;
60873;SDS011;46715;40.642;-7.920;2022-11-10T12:35:06;6.60;;;3.63;;
60873;SDS011;46715;40.642;-7.920;2022-11-10T12:40:16;5.68;;;2.80;;
60873;SDS011;46715;40.642;-7.920;2022-11-10T12:42:50;5.53;;;2.67;;
60873;SDS011;46715;40.642;-7.920;2022-11-10T12:45:20;6.30;;;2.78;;
60873;SDS011;46715;40.642;-7.920;2022-11-10T12:47:45;4.78;;;3.03;;
60873;SDS011;46715;40.642;-7.920;2022-11-10T12:52:36;5.90;;;2.72;;
60873;SDS011;46715;40.642;-7.920;2022-11-10T12:55:01;5.78;;;3.67;;
60873;SDS011;46715;40.642;-7.920;2022-11-10T12:57:21;5.88;;;3.25;;
60873;SDS011;46715;40.642;-7.920;2022-11-10T13:00:00;6.05;;;3.33;;
60873;SDS011;46715;40.642;-7.920;2022-11-10T13:02:32;7.03;;;3.00;;
60873;SDS011;46715;40.642;-7.920;2022-11-10T13:05:22;4.97;;;2.85;;
60873;SDS011;46715;40.642;-7.920;2022-11-10T13:12:37;3.85;;;1.75;;
60873;SDS011;46715;40.642;-7.920;2022-11-10T13:17:56;3.67;;;1.95;;
60873;SDS011;46715;40.642;-7.920;2022-11-10T13:22:57;3.65;;;2.75;;
60873;SDS011;46715;40.642;-7.920;2022-11-10T13:27:54;4.72;;;2.38;;
60873;SDS011;46715;40.642;-7.920;2022-11-10T13:30:35;6.68;;;2.75;;
60873;SDS011;46715;40.642;-7.920;2022-11-10T13:33:21;5.07;;;2.72;;
60873;SDS011;46715;40.642;-7.920;2022-11-10T13:35:43;4.75;;;2.80;;
60873;SDS011;46715;40.642;-7.920;2022-11-10T13:38:17;4.57;;;2.45;;
60873;SDS011;46715;40.642;-7.920;2022-11-10T13:43:53;7.22;;;2.33;;
60873;SDS011;46715;40.642;-7.920;2022-11-10T13:46:14;6.63;;;2.40;;
60873;SDS011;46715;40.642;-7.920;2022-11-10T13:48:54;3.53;;;2.17;;
60873;SDS011;46715;40.642;-7.920;2022-11-10T13:53:54;4.32;;;2.17;;
60873;SDS011;46715;40.642;-7.920;2022-11-10T13:59:00;5.40;;;1.90;;
60873;SDS011;46715;40.642;-7.920;2022-11-10T14:01:37;5.20;;;1.88;;
60873;SDS011;46715;40.642;-7.920;2022-11-10T14:03:57;3.15;;;1.80;;
60873;SDS011;46715;40.642;-7.920;2022-11-10T14:06:26;3.08;;;1.90;;
60873;SDS011;46715;40.642;-7.920;2022-11-10T14:08:52;4.00;;;1.60;;
60873;SDS011;46715;40.642;-7.920;2022-11-10T14:11:21;6.50;;;1.88;;
60873;SDS011;46715;40.642;-7.920;2022-11-10T14:14:11;2.90;;;1.98;;
60873;SDS011;46715;40.642;-7.920;2022-11-10T14:16:39;2.40;;;1.80;;
60873;SDS011;46715;40.642;-7.920;2022-11-10T14:19:02;2.33;;;1.60;;
60873;SDS011;46715;40.642;-7.920;2022-11-10T14:21:45;3.45;;;1.90;;
60873;SDS011;46715;40.642;-7.920;2022-11-10T14:24:19;3.95;;;1.60;;
60873;SDS011;46715;40.642;-7.920;2022-11-10T14:26:52;4.10;;;2.00;;
60873;SDS011;46715;40.642;-7.920;2022-11-10T14:29:25;6.35;;;2.03;;
60873;SDS011;46715;40.642;-7.920;2022-11-10T14:31:55;5.15;;;2.00;;
60873;SDS011;46715;40.642;-7.920;2022-11-10T14:34:17;4.90;;;1.60;;
60873;SDS011;46715;40.642;-7.920;2022-11-10T14:36:37;3.08;;;1.73;;
60873;SDS011;46715;40.642;-7.920;2022-11-10T14:38:56;3.63;;;1.75;;
60873;SDS011;46715;40.642;-7.920;2022-11-10T14:41:19;2.67;;;1.33;;
60873;SDS011;46715;40.642;-7.920;2022-11-10T14:43:40;2.83;;;1.60;;
60873;SDS011;46715;40.642;-7.920;2022-11-10T14:46:00;2.55;;;1.60;;
60873;SDS011;46715;40.642;-7.920;2022-11-10T14:48:22;2.25;;;1.60;;
60873;SDS011;46715;40.642;-7.920;2022-11-10T14:50:44;2.33;;;1.90;;
60873;SDS011;46715;40.642;-7.920;2022-11-10T14:53:11;2.85;;;1.88;;
60873;SDS011;46715;40.642;-7.920;2022-11-10T14:55:34;2.22;;;1.52;;
60873;SDS011;46715;40.642;-7.920;2022-11-10T14:57:57;3.75;;;1.35;;
60873;SDS011;46715;40.642;-7.920;2022-11-10T15:00:23;3.53;;;1.38;;
60873;SDS011;46715;40.642;-7.920;2022-11-10T15:02:44;2.78;;;1.77;;
60873;SDS011;46715;40.642;-7.920;2022-11-10T15:05:04;4.32;;;1.83;;
60873;SDS011;46715;40.642;-7.920;2022-11-10T15:07:24;1.88;;;1.40;;
60873;SDS011;46715;40.642;-7.920;2022-11-10T15:12:26;2.83;;;1.90;;
60873;SDS011;46715;40.642;-7.920;2022-11-10T15:14:45;3.40;;;2.08;;
60873;SDS011;46715;40.642;-7.920;2022-11-10T15:17:07;5.57;;;1.75;;
60873;SDS011;46715;40.642;-7.920;2022-11-10T15:19:29;2.85;;;1.60;;
60873;SDS011;46715;40.642;-7.920;2022-11-10T15:21:53;2.38;;;1.50;;